Latest Weather Observations for Omeo

IDV60801

Issued at 5:32 pm EST Sunday 23 April 2017 (issued every 30 minutes, with the page automatically refreshed every 10 minutes)

About weather observations | Map of weather stations | Latest weather observations for VIC | Other Formats
Station Details ID: 083090 Name: OMEO Lat: -37.10 Lon: 147.60 Height: 689.8 m
Data from the previous 72 hours. | See also: Recent months at Omeo
Date/Time
EST
Temp
°C
App
Temp
°C
Dew
Point
°C
Rel
Hum
%
Delta-T
°C
Wind Press
QNH
hPa
Press
MSL
hPa
Rain since
9am
mm
Dir  Spd
km/h
Gust
km/h
Spd
kts
Gust
kts
23/05:30pm 16.4 15.2 11.6 73 2.7 SSE 9 15 5 8 1023.5 1022.8 0.2
23/05:00pm 16.9 16.1 11.2 69 3.2 SE 6 9 3 5 1023.3 1022.6 0.2
23/04:30pm 17.4 15.6 11.0 66 3.6 SSE 11 15 6 8 1023.1 1022.3 0.2
23/04:00pm 18.0 17.1 10.6 62 4.1 SSE 6 11 3 6 1023.0 1022.2 0.2
23/03:30pm 18.9 17.6 9.9 56 5.0 S 7 13 4 7 1022.9 1022.1 0.2
23/03:00pm 20.2 19.0 11.7 58 4.9 S 9 15 5 8 1022.8 1022.0 0.2
23/02:30pm 18.9 18.0 10.5 58 4.7 SSW 6 7 3 4 1022.9 1022.1 0.2
23/02:00pm 19.1 17.0 8.4 50 5.7 W 9 13 5 7 1023.1 1022.3 0.2
23/01:30pm 20.4 18.9 9.0 48 6.2 W 7 15 4 8 1023.3 1022.6 0.2
23/01:00pm 19.6 18.1 9.2 51 5.7 NNW 7 17 4 9 1023.7 1023.0 0.2
23/12:30pm 19.8 19.4 11.0 57 5.0 NW 4 9 2 5 1024.1 1023.4 0.2
23/12:00pm 18.0 16.6 10.9 63 3.9 NNW 9 13 5 7 1024.7 1024.0 0.2
23/11:30am 16.5 15.0 10.6 68 3.3 NNW 9 13 5 7 1025.2 1024.5 0.2
23/11:00am 15.2 13.0 9.3 68 3.1 N 11 15 6 8 1025.7 1025.1 0.2
23/10:30am 14.3 12.4 9.1 71 2.7 N 9 13 5 7 1026.0 1025.3 0.0
23/10:00am 13.3 11.9 8.8 74 2.3 NNW 6 9 3 5 1026.2 1025.5 0.0
23/09:30am 12.1 10.3 8.0 76 2.1 NW 7 11 4 6 1026.5 1025.8 0.0
23/09:00am 11.1 9.1 8.7 85 1.2 NNW 9 13 5 7 1026.6 1025.9 0.2
23/08:30am 9.9 8.2 8.5 91 0.7 NNW 7 9 4 5 1026.6 1025.9 0.2
23/08:00am 8.6 7.8 8.3 98 0.1 WNW 2 6 1 3 1026.5 1025.8 0.2
23/07:30am 8.4 8.0 8.1 98 0.1 CALM 0 0 0 0 1026.1 1025.4 0.2
23/07:00am 8.1 7.2 7.7 97 0.2 W 2 6 1 3 1026.0 1025.3 0.2
23/06:30am 8.2 7.7 7.8 97 0.2 CALM 0 4 0 2 1025.9 1025.2 0.2
23/06:00am 8.2 7.3 7.9 98 0.1 NW 2 7 1 4 1025.6 1025.0 0.2
23/05:30am 8.2 7.7 7.9 98 0.1 CALM 0 0 0 0 1025.4 1024.7 0.2
23/05:00am 8.3 6.7 8.0 98 0.1 W 6 7 3 4 1025.1 1024.4 0.2
23/04:30am 8.6 7.1 8.5 99 0.1 NNW 6 7 3 4 1024.9 1024.2 0.2
23/04:00am 8.7 7.2 8.6 99 0.1 NNW 6 9 3 5 1024.9 1024.2 0.2
23/03:30am 8.7 8.0 8.6 99 0.1 NW 2 6 1 3 1024.9 1024.2 0.2
23/03:00am 9.3 7.4 9.2 99 0.1 NNW 9 11 5 6 1024.9 1024.2 0.2
23/02:30am 9.9 8.6 9.8 99 0.1 N 7 9 4 5 1025.1 1024.4 0.2
23/02:00am 10.3 9.0 10.1 99 0.1 NNW 7 9 4 5 1025.2 1024.5 0.2
23/01:30am 10.3 9.0 10.1 99 0.1 NNW 7 11 4 6 1025.3 1024.6 0.2
23/01:00am 10.4 8.8 10.2 99 0.1 N 9 13 5 7 1025.4 1024.7 0.2
23/12:30am 10.7 9.2 10.5 99 0.1 N 9 11 5 6 1025.4 1024.7 0.2
23/12:00am 10.8 9.3 10.6 99 0.1 N 9 11 5 6 1025.4 1024.7 0.2
 
Date/Time
EST
Temp
°C
App
Temp
°C
Dew
Point
°C
Rel
Hum
%
Delta-T
°C
Wind Press
QNH
hPa
Press
MSL
hPa
Rain since
9am
mm
Dir  Spd
km/h
Gust
km/h
Spd
kts
Gust
kts
22/11:30pm 10.8 9.7 10.5 98 0.2 NNE 7 11 4 6 1025.3 1024.6 0.2
22/11:00pm 10.5 10.1 9.9 96 0.3 NNW 2 6 1 3 1025.4 1024.7 0.2
22/10:30pm 10.7 10.4 10.1 96 0.3 NNW 2 6 1 3 1025.5 1024.8 0.2
22/10:00pm 10.8 10.8 9.9 94 0.5 CALM 0 0 0 0 1025.5 1024.8 0.2
22/09:30pm 11.4 11.6 10.5 94 0.5 CALM 0 4 0 2 1025.6 1025.0 0.2
22/09:00pm 11.9 12.2 11.0 94 0.5 CALM 0 0 0 0 1025.5 1024.8 0.2
22/08:30pm 12.2 12.2 11.1 93 0.6 SW 2 7 1 4 1025.5 1024.8 0.2
22/08:00pm 12.7 12.4 11.3 91 0.8 SW 4 7 2 4 1025.4 1024.7 0.2
22/07:30pm 13.4 13.9 11.6 89 1.0 CALM 0 0 0 0 1025.0 1024.3 0.2
22/07:00pm 13.8 14.3 11.5 86 1.3 CALM 0 0 0 0 1025.0 1024.3 0.2
22/06:30pm 13.9 14.3 11.4 85 1.4 CALM 0 0 0 0 1024.8 1024.1 0.2
22/06:00pm 14.3 14.4 11.6 84 1.5 N 2 6 1 3 1024.6 1023.9 0.2
22/05:30pm 14.7 14.1 11.7 82 1.7 N 6 9 3 5 1024.4 1023.7 0.2
22/05:00pm 15.0 14.3 12.0 82 1.7 NNE 7 11 4 6 1024.3 1023.5 0.2
22/04:30pm 15.3 14.3 12.4 83 1.6 N 9 13 5 7 1024.3 1023.5 0.2
22/04:00pm 15.0 13.9 12.1 83 1.6 N 9 17 5 9 1024.1 1023.4 0.2
22/03:30pm 14.9 13.7 12.8 87 1.2 N 11 13 6 7 1024.0 1023.3 0.2
22/03:00pm 14.9 13.7 12.8 87 1.2 N 11 19 6 10 1024.0 1023.3 0.2
22/02:30pm 14.5 12.8 12.4 87 1.2 N 13 19 7 10 1023.9 1023.2 0.2
22/02:00pm 15.1 12.5 11.9 81 1.8 N 17 22 9 12 1024.1 1023.4 0.0
22/01:30pm 15.3 12.8 12.2 82 1.7 N 17 26 9 14 1024.1 1023.4 0.0
22/01:00pm 15.5 12.1 11.3 76 2.3 N 20 30 11 16 1024.6 1023.9 0.0
22/12:30pm 15.9 12.2 11.5 75 2.5 N 22 30 12 16 1024.8 1024.1 0.0
22/12:00pm 17.0 13.2 12.5 75 2.6 N 24 37 13 20 1025.1 1024.4 0.0
22/11:30am 15.4 11.4 11.8 79 2.0 N 24 32 13 17 1025.5 1024.8 0.0
22/11:00am 15.2 11.9 11.6 79 2.0 N 20 32 11 17 1025.7 1025.1 0.0
22/10:30am 15.5 11.9 11.7 78 2.1 NNW 22 32 12 17 1026.0 1025.3 0.0
22/10:00am 16.5 13.6 12.8 79 2.1 N 20 28 11 15 1026.0 1025.3 0.0
22/09:30am 14.9 12.4 12.4 85 1.4 NNW 17 24 9 13 1026.2 1025.5 0.0
22/09:00am 14.3 11.7 12.0 86 1.3 NNW 17 24 9 13 1026.2 1025.5 3.6
22/08:30am 13.1 11.2 11.7 91 0.8 NNW 13 19 7 10 1026.2 1025.5 3.6
22/08:00am 12.5 10.9 11.7 95 0.4 NNW 11 17 6 9 1026.1 1025.4 3.6
22/07:30am 11.4 9.6 10.9 97 0.3 NNW 11 15 6 8 1025.7 1025.1 3.6
22/07:00am 11.2 9.3 10.6 96 0.3 N 11 13 6 7 1025.4 1024.7 3.6
22/06:30am 11.4 9.5 10.6 95 0.4 NNW 11 15 6 8 1025.0 1024.3 3.6
22/06:00am 11.9 10.5 10.8 93 0.6 NNW 9 13 5 7 1024.9 1024.2 3.6
22/05:30am 11.6 9.8 10.8 95 0.4 NNW 11 15 6 8 1024.8 1024.1 3.6
22/05:00am 11.4 9.5 10.6 95 0.4 NNW 11 17 6 9 1024.6 1023.9 3.6
22/04:30am 11.4 9.9 10.5 94 0.5 NNW 9 13 5 7 1024.6 1023.9 3.6
22/04:00am 11.6 9.3 10.5 93 0.6 NNW 13 19 7 10 1024.3 1023.5 3.6
22/03:30am 11.7 10.3 10.8 94 0.5 N 9 13 5 7 1024.5 1023.8 3.6
22/03:00am 11.8 8.8 10.5 92 0.7 N 17 24 9 13 1024.5 1023.8 3.6
22/02:30am 12.0 9.8 10.7 92 0.7 N 13 17 7 9 1024.7 1024.0 3.6
22/02:00am 12.0 9.7 10.4 90 0.9 NNW 13 19 7 10 1024.7 1024.0 3.6
22/01:30am 12.3 10.4 10.5 89 1.0 N 11 15 6 8 1025.0 1024.3 3.6
22/01:00am 12.3 10.4 10.5 89 1.0 N 11 19 6 10 1025.0 1024.3 3.6
22/12:30am 12.0 10.2 10.7 92 0.7 N 11 15 6 8 1024.9 1024.2 3.6
22/12:00am 11.8 10.3 10.5 92 0.7 N 9 17 5 9 1025.0 1024.3 3.6
 
Date/Time
EST
Temp
°C
App
Temp
°C
Dew
Point
°C
Rel
Hum
%
Delta-T
°C
Wind Press
QNH
hPa
Press
MSL
hPa
Rain since
9am
mm
Dir  Spd
km/h
Gust
km/h
Spd
kts
Gust
kts
21/11:30pm 11.7 9.7 10.3 91 0.7 NNW 11 17 6 9 1025.2 1024.5 3.6
21/11:00pm 11.5 8.8 10.4 93 0.6 N 15 20 8 11 1025.1 1024.4 3.6
21/10:30pm 12.1 10.2 10.5 90 0.9 N 11 22 6 12 1025.4 1024.7 3.6
21/10:00pm 12.2 10.3 10.6 90 0.9 N 11 17 6 9 1025.6 1025.0 3.6
21/09:30pm 12.1 10.2 10.5 90 0.9 N 11 19 6 10 1025.6 1025.0 3.6
21/09:00pm 12.1 9.9 10.7 91 0.7 N 13 19 7 10 1025.5 1024.8 3.6
21/08:30pm 12.0 10.7 11.1 94 0.5 N 9 15 5 8 1025.4 1024.7 3.6
21/08:00pm 12.0 10.4 11.4 96 0.3 N 11 15 6 8 1025.2 1024.5 3.6
21/07:30pm 12.2 9.8 11.4 95 0.4 N 15 20 8 11 1025.1 1024.4 3.0
21/07:00pm 12.5 10.2 11.6 94 0.5 NNW 15 20 8 11 1024.9 1024.2 2.2
21/06:30pm 12.8 10.4 11.4 91 0.8 N 15 24 8 13 1024.6 1023.9 2.0
21/06:00pm 13.7 10.4 10.9 83 1.5 N 19 28 10 15 1024.4 1023.7 1.6
21/05:30pm 14.0 11.4 10.6 80 1.8 N 15 22 8 12 1024.5 1023.8 1.6
21/05:00pm 14.3 11.4 10.9 80 1.9 N 17 24 9 13 1024.3 1023.5 1.6
21/04:30pm 14.5 11.1 10.7 78 2.1 N 19 28 10 15 1024.1 1023.4 1.6
21/04:00pm 14.9 11.7 11.1 78 2.1 N 19 26 10 14 1024.1 1023.4 1.6
21/03:30pm 14.7 11.1 10.7 77 2.2 N 20 30 11 16 1024.4 1023.7 1.6
21/03:00pm 14.8 11.6 11.4 80 1.9 N 19 32 10 17 1024.4 1023.7 1.6
21/02:30pm 15.0 10.8 11.2 78 2.1 N 24 35 13 19 1024.6 1023.9 1.6
21/02:00pm 15.2 12.2 12.0 81 1.8 N 19 28 10 15 1024.8 1024.1 1.6
21/01:30pm 14.5 12.3 12.0 85 1.4 N 15 24 8 13 1024.8 1024.1 1.6
21/01:00pm 14.4 12.6 12.1 86 1.3 NNW 13 19 7 10 1024.9 1024.2 1.6
21/12:30pm 14.0 12.1 11.9 87 1.2 NNW 13 19 7 10 1025.1 1024.4 1.6
21/12:00pm 13.7 12.1 11.6 87 1.2 NNW 11 15 6 8 1025.4 1024.7 1.6
21/11:30am 13.4 11.3 11.3 87 1.2 N 13 17 7 9 1025.7 1025.1 1.4
21/11:00am 12.7 10.3 10.2 85 1.3 N 13 19 7 10 1025.9 1025.2 1.2
21/10:30am 12.6 10.3 10.5 87 1.1 N 13 19 7 10 1026.2 1025.5 0.8
21/10:00am 12.0 10.8 10.4 90 0.9 NNW 7 9 4 5 1026.4 1025.7 0.8
21/09:30am 12.0 10.0 10.1 88 1.0 N 11 17 6 9 1026.7 1026.0 0.6
21/09:00am 11.0 8.8 9.3 89 0.9 NNW 11 19 6 10 1026.7 1026.0 0.0
21/08:30am 10.4 8.4 8.8 90 0.8 NNW 9 15 5 8 1026.8 1026.1 0.0
21/08:00am 9.9 7.9 8.5 91 0.7 N 9 13 5 7 1026.7 1026.0 0.0
21/07:30am 9.1 6.6 8.0 93 0.5 N 11 17 6 9 1026.3 1025.6 0.0
21/07:00am 8.5 6.3 7.7 95 0.4 NNW 9 13 5 7 1026.0 1025.3 0.0
21/06:30am 8.2 6.5 7.4 95 0.4 NW 6 9 3 5 1025.6 1025.0 0.0
21/06:00am 8.0 6.6 7.2 95 0.4 NW 4 7 2 4 1025.3 1024.6 0.0
21/05:30am 7.9 6.1 7.3 96 0.3 NW 6 9 3 5 1025.1 1024.4 0.0
21/05:00am 7.6 5.6 7.0 96 0.3 NNW 7 11 4 6 1025.2 1024.5 0.0
21/04:30am 7.2 5.3 6.6 96 0.3 WNW 6 9 3 5 1025.3 1024.6 0.0
21/04:00am 7.4 5.0 7.0 97 0.2 NW 9 11 5 6 1025.2 1024.5 0.0
21/03:30am 7.5 5.6 6.9 96 0.3 WNW 6 7 3 4 1025.3 1024.6 0.0
21/03:00am 7.8 5.8 7.2 96 0.3 NW 7 9 4 5 1025.4 1024.7 0.0
21/02:30am 7.7 5.9 7.0 95 0.3 NW 6 7 3 4 1025.5 1024.8 0.0
21/02:00am 8.0 5.6 7.2 95 0.4 NW 9 9 5 5 1025.7 1025.1 0.0
21/01:30am 8.1 6.1 6.9 92 0.6 NNW 7 9 4 5 1025.9 1025.2 0.0
21/01:00am 9.0 7.1 7.6 91 0.7 NW 7 9 4 5 1026.1 1025.4 0.0
21/12:30am 9.2 7.3 7.6 90 0.8 NW 7 9 4 5 1026.1 1025.4 0.0
21/12:00am 9.6 7.4 7.9 89 0.8 NNW 9 13 5 7 1026.1 1025.4 0.0
 
Date/Time
EST
Temp
°C
App
Temp
°C
Dew
Point
°C
Rel
Hum
%
Delta-T
°C
Wind Press
QNH
hPa
Press
MSL
hPa
Rain since
9am
mm
Dir  Spd
km/h
Gust
km/h
Spd
kts
Gust
kts
20/11:30pm 10.2 8.7 8.3 88 1.0 NNW 6 7 3 4 1026.2 1025.5 0.0
20/11:00pm 10.4 8.7 8.3 87 1.1 NW 7 11 4 6 1026.6 1025.9 0.0
20/10:30pm 11.2 10.1 8.6 84 1.3 N 4 9 2 5 1027.0 1026.4 0.0
20/10:00pm 12.3 10.4 9.1 81 1.7 NNE 9 13 5 7 1027.1 1026.5 0.0
20/09:30pm 12.2 10.8 8.9 80 1.7 N 6 7 3 4 1027.2 1026.6 0.0
20/09:00pm 12.2 10.8 8.7 79 1.8 N 6 7 3 4 1027.1 1026.5 0.0
20/08:30pm 12.7 11.3 8.8 77 2.0 N 6 7 3 4 1027.1 1026.5 0.0
20/08:00pm 13.4 13.2 9.1 75 2.2 CALM 0 0 0 0 1027.1 1026.5 0.0
20/07:30pm 13.9 13.3 9.1 73 2.5 NNE 2 7 1 4 1027.0 1026.4 0.0
20/07:00pm 13.9 13.6 8.7 71 2.7 CALM 0 0 0 0 1026.9 1026.3 0.0
20/06:30pm 15.5 15.3 9.0 65 3.5 CALM 0 0 0 0 1026.8 1026.1 0.0
20/06:00pm 16.5 15.1 9.0 61 4.0 NNE 6 9 3 5 1026.6 1025.9 0.0

Other Formats:

Comma delimited format used in spreadsheet applications
http://www.bom.gov.au/fwo/IDV60801/IDV60801.94908.axf

JavaScript Object Notation format (JSON) in row-major order
http://www.bom.gov.au/fwo/IDV60801/IDV60801.94908.json